Terminal Aerodrome Forecast
Issued by NWS Wakefield, VA

Home | Current Version | Previous Version | Text Only | Print | Product List | Glossary On
Versions: 1 2 3 4 5 6 7 8 9 10 11 12 13 14 15 16 17 18 19
000
FTUS41 KAKQ 180529
TAFECG
TAF
KECG 180529Z 1806/1906 28003KT P6SM -RA OVC004
     FM180700 29008KT P6SM OVC004
     FM181100 29008KT P6SM BKN035
     FM181300 34009KT P6SM SCT035
     FM181700 02010KT P6SM SKC
     FM182200 06007KT P6SM SKC=

USA.gov is the U.S. government's official web portal to all federal, state and local government web resources and services.